createdAt,value
2016-06-26T00:00:49.435Z,0
2016-06-26T00:01:48.763Z,0
2016-06-26T00:02:48.771Z,0
2016-06-26T00:03:48.116Z,0
2016-06-26T00:04:49.388Z,0
2016-06-26T00:05:48.717Z,0
2016-06-26T00:06:48.695Z,0
2016-06-26T00:07:49.325Z,0
2016-06-26T00:08:48.667Z,0
2016-06-26T00:09:49.310Z,0
2016-06-26T00:10:49.129Z,0
2016-06-26T00:11:49.792Z,0
2016-06-26T00:12:49.064Z,0
2016-06-26T00:13:47.980Z,0
2016-06-26T00:14:48.624Z,0
2016-06-26T00:15:49.197Z,0
2016-06-26T00:16:48.555Z,0
2016-06-26T00:17:48.535Z,0
2016-06-26T00:18:49.163Z,0
2016-06-26T00:19:48.514Z,0
2016-06-26T00:20:48.476Z,0
2016-06-26T00:21:49.101Z,0
2016-06-26T00:22:48.690Z,0
2016-06-26T00:23:48.475Z,0
2016-06-26T00:24:48.458Z,0
2016-06-26T00:25:49.043Z,0
2016-06-26T00:26:47.802Z,0
2016-06-26T00:27:48.393Z,0
2016-06-26T00:28:49.017Z,0
2016-06-26T00:29:49.009Z,0
2016-06-26T00:30:48.974Z,0
2016-06-26T00:31:48.311Z,0
2016-06-26T00:32:47.691Z,0
2016-06-26T00:33:47.662Z,0
2016-06-26T00:34:48.929Z,0
2016-06-26T00:35:48.284Z,0
2016-06-26T00:36:48.270Z,0
2016-06-26T00:37:48.254Z,0
2016-06-26T00:38:48.886Z,0
2016-06-26T00:39:48.849Z,0
2016-06-26T00:40:47.564Z,0
2016-06-26T00:41:47.533Z,0
2016-06-26T00:42:47.517Z,0
2016-06-26T00:43:48.795Z,0
2016-06-26T00:44:48.140Z,0
2016-06-26T00:45:48.122Z,0
2016-06-26T00:46:48.108Z,0
2016-06-26T00:47:48.746Z,0
2016-06-26T00:48:47.451Z,0
2016-06-26T00:49:48.054Z,0
2016-06-26T00:50:48.031Z,0
2016-06-26T00:51:47.401Z,0
2016-06-26T00:52:48.034Z,0
2016-06-26T00:53:48.637Z,0
2016-06-26T00:54:48.011Z,0
2016-06-26T00:55:48.628Z,0
2016-06-26T00:56:47.958Z,0
2016-06-26T00:57:47.933Z,0
2016-06-26T00:58:47.274Z,0
2016-06-26T00:59:47.898Z,0
2016-06-26T01:00:48.538Z,0
2016-06-26T01:01:47.252Z,0
2016-06-26T01:02:47.917Z,0
2016-06-26T01:03:48.519Z,0
2016-06-26T01:04:47.840Z,0
2016-06-26T01:05:46.581Z,0
2016-06-26T01:06:46.507Z,0
2016-06-26T01:07:48.435Z,0
2016-06-26T01:08:48.416Z,0
2016-06-26T01:09:46.496Z,0
2016-06-26T01:10:47.744Z,0
2016-06-26T01:11:48.374Z,0
2016-06-26T01:12:48.353Z,0
2016-06-26T01:13:48.321Z,0
2016-06-26T01:14:47.721Z,0
2016-06-26T01:15:47.700Z,0
2016-06-26T01:16:46.986Z,0
2016-06-26T01:17:48.278Z,0
2016-06-26T01:18:48.261Z,0
2016-06-26T01:19:46.357Z,0
2016-06-26T01:20:48.239Z,0
2016-06-26T01:21:47.568Z,0
2016-06-26T01:22:48.211Z,0
2016-06-26T01:23:47.542Z,0
2016-06-26T01:24:47.542Z,0
2016-06-26T01:25:47.530Z,0
2016-06-26T01:26:48.148Z,0
2016-06-26T01:27:47.538Z,0
2016-06-26T01:28:47.494Z,0
2016-06-26T01:29:48.110Z,0
2016-06-26T01:30:47.439Z,0
2016-06-26T01:31:47.407Z,0
2016-06-26T01:32:47.422Z,0
2016-06-26T01:33:47.403Z,0
2016-06-26T01:34:47.378Z,0
2016-06-26T01:35:47.370Z,0
2016-06-26T01:36:47.357Z,0
2016-06-26T01:37:47.334Z,0
2016-06-26T01:38:47.336Z,0
2016-06-26T01:39:47.977Z,0
2016-06-26T01:40:46.688Z,0
2016-06-26T01:41:47.294Z,0
2016-06-26T01:42:47.918Z,0
2016-06-26T01:43:47.902Z,0
2016-06-26T01:44:47.888Z,0
2016-06-26T01:45:47.884Z,0
2016-06-26T01:46:47.228Z,0
2016-06-26T01:47:47.824Z,0
2016-06-26T01:48:47.198Z,0
2016-06-26T01:49:48.021Z,0
2016-06-26T01:50:47.150Z,0
2016-06-26T01:51:47.797Z,0
2016-06-26T01:52:47.769Z,0
2016-06-26T01:53:47.090Z,0
2016-06-26T01:54:47.080Z,0
2016-06-26T01:55:47.763Z,0
2016-06-26T01:56:46.439Z,0
2016-06-26T01:57:47.680Z,0
2016-06-26T01:58:47.039Z,0
2016-06-26T01:59:47.119Z,0
2016-06-26T02:00:46.982Z,0
2016-06-26T02:01:46.323Z,0
2016-06-26T02:02:46.946Z,0
2016-06-26T02:03:46.971Z,0
2016-06-26T02:04:46.948Z,0
2016-06-26T02:05:47.557Z,0
2016-06-26T02:06:46.278Z,0
2016-06-26T02:07:46.263Z,0
2016-06-26T02:08:46.218Z,0
2016-06-26T02:09:46.856Z,0
2016-06-26T02:10:46.846Z,0
2016-06-26T02:11:46.178Z,0
2016-06-26T02:12:47.431Z,0
2016-06-26T02:13:47.448Z,0
2016-06-26T02:14:46.834Z,0
2016-06-26T02:15:46.764Z,0
2016-06-26T02:16:45.468Z,0
2016-06-26T02:17:46.747Z,0
2016-06-26T02:18:47.364Z,0
2016-06-26T02:19:47.333Z,0
2016-06-26T02:20:46.029Z,0
2016-06-26T02:21:46.685Z,0
2016-06-26T02:22:46.031Z,0
2016-06-26T02:23:46.644Z,0
2016-06-26T02:24:45.985Z,0
2016-06-26T02:25:45.975Z,0
2016-06-26T02:26:47.233Z,0
2016-06-26T02:27:46.586Z,0
2016-06-26T02:28:47.215Z,0
2016-06-26T02:29:47.208Z,0
2016-06-26T02:30:45.899Z,0
2016-06-26T02:31:45.906Z,0
2016-06-26T02:32:47.138Z,0
2016-06-26T02:33:47.143Z,0
2016-06-26T02:34:47.219Z,0
2016-06-26T02:35:45.827Z,0
2016-06-26T02:36:46.464Z,0
2016-06-26T02:37:46.419Z,0
2016-06-26T02:38:46.426Z,0
2016-06-26T02:39:46.421Z,0
2016-06-26T02:40:45.743Z,0
2016-06-26T02:41:47.014Z,0
2016-06-26T02:42:47.037Z,0
2016-06-26T02:43:46.349Z,0
2016-06-26T02:44:45.688Z,0
2016-06-26T02:45:45.672Z,0
2016-06-26T02:46:46.926Z,0
2016-06-26T02:47:46.907Z,0
2016-06-26T02:48:46.893Z,0
2016-06-26T02:49:46.881Z,0
2016-06-26T02:50:46.865Z,0
2016-06-26T02:51:46.845Z,0
2016-06-26T02:52:46.195Z,0
2016-06-26T02:53:45.542Z,0
2016-06-26T02:54:45.565Z,0
2016-06-26T02:55:46.180Z,0
2016-06-26T02:56:45.503Z,0
2016-06-26T02:57:46.805Z,0
2016-06-26T02:58:46.747Z,0
2016-06-26T02:59:46.113Z,0
2016-06-26T03:00:45.433Z,0
2016-06-26T03:01:46.712Z,0
2016-06-26T03:02:45.414Z,0
2016-06-26T03:03:46.031Z,0
2016-06-26T03:04:46.664Z,0
2016-06-26T03:05:46.006Z,0
2016-06-26T03:06:46.666Z,0
2016-06-26T03:07:45.959Z,0
2016-06-26T03:08:45.965Z,0
2016-06-26T03:09:45.324Z,0
2016-06-26T03:10:46.610Z,0
2016-06-26T03:11:45.259Z,0
2016-06-26T03:12:46.562Z,0
2016-06-26T03:13:45.257Z,0
2016-06-26T03:14:46.484Z,0
2016-06-26T03:15:45.859Z,0
2016-06-26T03:16:45.853Z,0
2016-06-26T03:17:45.171Z,0
2016-06-26T03:18:45.792Z,0
2016-06-26T03:19:46.451Z,0
2016-06-26T03:20:45.791Z,0
2016-06-26T03:21:46.390Z,0
2016-06-26T03:22:46.400Z,0
2016-06-26T03:23:45.728Z,0
2016-06-26T03:24:45.718Z,0
2016-06-26T03:25:46.343Z,0
2016-06-26T03:26:45.714Z,0
2016-06-26T03:27:46.305Z,0
2016-06-26T03:28:45.019Z,0
2016-06-26T03:29:46.257Z,0
2016-06-26T03:30:45.620Z,0
2016-06-26T03:31:45.610Z,0
2016-06-26T03:32:45.625Z,0
2016-06-26T03:33:45.592Z,0
2016-06-26T03:34:46.234Z,0
2016-06-26T03:35:45.569Z,0
2016-06-26T03:36:46.177Z,0
2016-06-26T03:37:45.504Z,0
2016-06-26T03:38:44.859Z,0
2016-06-26T03:39:45.494Z,0
2016-06-26T03:40:44.186Z,0
2016-06-26T03:41:44.178Z,0
2016-06-26T03:42:45.431Z,0
2016-06-26T03:43:46.082Z,0
2016-06-26T03:44:46.044Z,0
2016-06-26T03:45:46.043Z,0
2016-06-26T03:46:46.029Z,0
2016-06-26T03:47:46.039Z,0
2016-06-26T03:48:45.352Z,0
2016-06-26T03:49:45.987Z,0
2016-06-26T03:50:45.313Z,0
2016-06-26T03:51:45.991Z,0
2016-06-26T03:52:44.662Z,0
2016-06-26T03:53:44.655Z,0
2016-06-26T03:54:44.610Z,0
2016-06-26T03:55:45.887Z,0
2016-06-26T03:56:45.229Z,0
2016-06-26T03:57:45.214Z,0
2016-06-26T03:58:43.935Z,0
2016-06-26T03:59:45.847Z,0
2016-06-26T04:00:44.530Z,0
2016-06-26T04:01:45.916Z,0
2016-06-26T04:02:45.770Z,0
2016-06-26T04:03:45.765Z,0
2016-06-26T04:04:45.115Z,0
2016-06-26T04:05:44.445Z,0
2016-06-26T04:06:45.096Z,0
2016-06-26T04:07:45.077Z,0
2016-06-26T04:08:45.046Z,0
2016-06-26T04:09:45.691Z,0
2016-06-26T04:10:44.394Z,0
2016-06-26T04:11:45.034Z,0
2016-06-26T04:12:44.997Z,0
2016-06-26T04:13:44.979Z,0
2016-06-26T04:14:44.955Z,0
2016-06-26T04:15:44.318Z,0
2016-06-26T04:16:44.918Z,0
2016-06-26T04:17:45.534Z,0
2016-06-26T04:18:45.556Z,0
2016-06-26T04:19:43.593Z,0
2016-06-26T04:20:44.871Z,0
2016-06-26T04:21:44.855Z,0
2016-06-26T04:22:44.224Z,0
2016-06-26T04:23:44.190Z,0
2016-06-26T04:24:44.812Z,0
2016-06-26T04:25:44.165Z,0
2016-06-26T04:26:43.525Z,0
2016-06-26T04:27:44.804Z,0
2016-06-26T04:28:45.404Z,0
2016-06-26T04:29:44.081Z,0
2016-06-26T04:30:44.058Z,0
2016-06-26T04:31:45.377Z,0
2016-06-26T04:32:44.689Z,0
2016-06-26T04:33:44.031Z,0
2016-06-26T04:34:45.298Z,0
2016-06-26T04:35:44.629Z,0
2016-06-26T04:36:44.627Z,0
2016-06-26T04:37:44.000Z,0
2016-06-26T04:38:44.588Z,0
2016-06-26T04:39:43.937Z,0
2016-06-26T04:40:44.587Z,0
2016-06-26T04:41:43.933Z,0
2016-06-26T04:42:45.178Z,0
2016-06-26T04:43:45.171Z,0
2016-06-26T04:44:44.514Z,0
2016-06-26T04:45:44.501Z,0
2016-06-26T04:46:45.135Z,0
2016-06-26T04:47:45.093Z,0
2016-06-26T04:48:45.100Z,0
2016-06-26T04:49:44.433Z,0
2016-06-26T04:50:44.404Z,0
2016-06-26T04:51:43.749Z,0
2016-06-26T04:52:44.377Z,0
2016-06-26T04:53:44.401Z,0
2016-06-26T04:54:44.990Z,0
2016-06-26T04:55:43.699Z,0
2016-06-26T04:56:43.033Z,0
2016-06-26T04:57:44.303Z,0
2016-06-26T04:58:44.307Z,0
2016-06-26T04:59:44.930Z,0
2016-06-26T05:00:44.292Z,0
2016-06-26T05:01:44.385Z,0
2016-06-26T05:02:44.274Z,0
2016-06-26T05:03:44.206Z,0
2016-06-26T05:04:43.590Z,0
2016-06-26T05:05:44.195Z,0
2016-06-26T05:06:44.183Z,0
2016-06-26T05:07:43.511Z,0
2016-06-26T05:08:44.929Z,0
2016-06-26T05:09:43.493Z,0
2016-06-26T05:10:44.754Z,0
2016-06-26T05:11:43.463Z,0
2016-06-26T05:12:44.738Z,0
2016-06-26T05:13:44.762Z,0
2016-06-26T05:14:44.705Z,0
2016-06-26T05:15:44.678Z,0
2016-06-26T05:16:42.746Z,0
2016-06-26T05:17:44.693Z,0
2016-06-26T05:18:44.655Z,5
2016-06-26T05:19:44.615Z,5
2016-06-26T05:20:44.608Z,5
2016-06-26T05:21:43.954Z,5
2016-06-26T05:22:43.293Z,5
2016-06-26T05:23:44.567Z,5
2016-06-26T05:24:43.910Z,5
2016-06-26T05:25:44.535Z,5
2016-06-26T05:26:43.869Z,10
2016-06-26T05:27:44.504Z,10
2016-06-26T05:28:44.521Z,10
2016-06-26T05:29:42.561Z,10
2016-06-26T05:30:43.819Z,10
2016-06-26T05:31:42.544Z,10
2016-06-26T05:32:44.415Z,10
2016-06-26T05:33:44.443Z,15
2016-06-26T05:34:44.411Z,15
2016-06-26T05:35:43.090Z,15
2016-06-26T05:36:43.742Z,15
2016-06-26T05:37:43.741Z,15
2016-06-26T05:38:43.068Z,20
2016-06-26T05:39:43.683Z,20
2016-06-26T05:40:44.322Z,20
2016-06-26T05:41:43.003Z,20
2016-06-26T05:42:43.657Z,25
2016-06-26T05:43:43.632Z,25
2016-06-26T05:44:43.614Z,25
2016-06-26T05:45:44.235Z,25
2016-06-26T05:46:43.568Z,30
2016-06-26T05:47:44.250Z,30
2016-06-26T05:48:43.548Z,30
2016-06-26T05:49:44.153Z,30
2016-06-26T05:50:44.176Z,35
2016-06-26T05:51:43.529Z,35
2016-06-26T05:52:44.117Z,35
2016-06-26T05:53:43.520Z,35
2016-06-26T05:54:42.835Z,35
2016-06-26T05:55:42.156Z,35
2016-06-26T05:56:44.090Z,35
2016-06-26T05:57:43.440Z,35
2016-06-26T05:58:42.749Z,35
2016-06-26T05:59:42.738Z,35
2016-06-26T06:00:43.391Z,35
2016-06-26T06:01:43.984Z,35
2016-06-26T06:02:43.361Z,35
2016-06-26T06:03:43.972Z,35
2016-06-26T06:04:42.662Z,35
2016-06-26T06:05:43.297Z,35
2016-06-26T06:06:43.290Z,35
2016-06-26T06:07:43.282Z,35
2016-06-26T06:08:42.632Z,35
2016-06-26T06:09:43.889Z,30
2016-06-26T06:10:43.873Z,30
2016-06-26T06:11:43.833Z,30
2016-06-26T06:12:43.224Z,30
2016-06-26T06:13:43.815Z,30
2016-06-26T06:14:42.517Z,30
2016-06-26T06:15:43.170Z,30
2016-06-26T06:16:43.788Z,30
2016-06-26T06:17:43.124Z,30
2016-06-26T06:18:43.101Z,30
2016-06-26T06:19:43.082Z,30
2016-06-26T06:20:43.711Z,30
2016-06-26T06:21:43.703Z,30
2016-06-26T06:22:43.083Z,30
2016-06-26T06:23:42.401Z,30
2016-06-26T06:24:43.025Z,30
2016-06-26T06:25:42.363Z,35
2016-06-26T06:26:42.980Z,35
2016-06-26T06:27:42.956Z,35
2016-06-26T06:28:43.598Z,35
2016-06-26T06:29:43.574Z,35
2016-06-26T06:30:43.549Z,35
2016-06-26T06:31:43.533Z,40
2016-06-26T06:32:42.257Z,40
2016-06-26T06:33:42.886Z,40
2016-06-26T06:34:43.498Z,40
2016-06-26T06:35:42.854Z,40
2016-06-26T06:36:43.508Z,40
2016-06-26T06:37:42.885Z,40
2016-06-26T06:38:42.835Z,40
2016-06-26T06:39:42.790Z,45
2016-06-26T06:40:42.154Z,45
2016-06-26T06:41:42.103Z,45
2016-06-26T06:42:42.754Z,45
2016-06-26T06:43:42.070Z,45
2016-06-26T06:44:43.350Z,45
2016-06-26T06:45:42.054Z,45
2016-06-26T06:46:43.314Z,45
2016-06-26T06:47:43.313Z,45
2016-06-26T06:48:43.302Z,45
2016-06-26T06:49:43.337Z,45
2016-06-26T06:50:42.665Z,50
2016-06-26T06:51:43.261Z,50
2016-06-26T06:52:43.260Z,50
2016-06-26T06:53:42.620Z,50
2016-06-26T06:54:43.211Z,50
2016-06-26T06:55:43.200Z,50
2016-06-26T06:56:42.572Z,50
2016-06-26T06:57:41.878Z,50
2016-06-26T06:58:43.156Z,50
2016-06-26T06:59:42.482Z,50
2016-06-26T07:00:43.127Z,55
2016-06-26T07:01:43.095Z,55
2016-06-26T07:02:41.829Z,55
2016-06-26T07:03:43.065Z,55
2016-06-26T07:04:42.429Z,55
2016-06-26T07:05:42.420Z,55
2016-06-26T07:06:41.731Z,55
2016-06-26T07:07:42.999Z,55
2016-06-26T07:08:42.995Z,55
2016-06-26T07:09:42.990Z,55
2016-06-26T07:10:42.342Z,55
2016-06-26T07:11:42.966Z,60
2016-06-26T07:12:41.675Z,60
2016-06-26T07:13:41.655Z,60
2016-06-26T07:14:41.024Z,60
2016-06-26T07:15:42.920Z,60
2016-06-26T07:16:42.866Z,60
2016-06-26T07:17:41.586Z,60
2016-06-26T07:18:42.227Z,60
2016-06-26T07:19:41.562Z,60
2016-06-26T07:20:41.546Z,60
2016-06-26T07:21:41.515Z,60
2016-06-26T07:22:42.160Z,65
2016-06-26T07:23:41.504Z,65
2016-06-26T07:24:41.503Z,65
2016-06-26T07:25:42.097Z,65
2016-06-26T07:26:42.112Z,65
2016-06-26T07:27:42.048Z,65
2016-06-26T07:28:41.421Z,65
2016-06-26T07:29:42.034Z,65
2016-06-26T07:30:42.075Z,65
2016-06-26T07:31:42.035Z,65
2016-06-26T07:32:42.650Z,65
2016-06-26T07:33:42.228Z,65
2016-06-26T07:34:42.623Z,65
2016-06-26T07:35:42.014Z,65
2016-06-26T07:36:41.950Z,70
2016-06-26T07:37:41.926Z,70
2016-06-26T07:38:41.929Z,70
2016-06-26T07:39:41.258Z,70
2016-06-26T07:40:41.884Z,70
2016-06-26T07:41:41.254Z,70
2016-06-26T07:42:41.875Z,70
2016-06-26T07:43:41.212Z,70
2016-06-26T07:44:41.827Z,70
2016-06-26T07:45:41.175Z,70
2016-06-26T07:46:42.450Z,70
2016-06-26T07:47:41.155Z,70
2016-06-26T07:48:41.158Z,70
2016-06-26T07:49:39.849Z,75
2016-06-26T07:50:42.382Z,75
2016-06-26T07:51:42.380Z,75
2016-06-26T07:52:42.373Z,75
2016-06-26T07:53:41.726Z,75
2016-06-26T07:54:42.381Z,75
2016-06-26T07:55:41.682Z,75
2016-06-26T07:56:40.373Z,75
2016-06-26T07:57:41.649Z,75
2016-06-26T07:58:41.642Z,75
2016-06-26T07:59:40.970Z,80
2016-06-26T08:00:42.273Z,80
2016-06-26T08:01:42.231Z,80
2016-06-26T08:02:42.247Z,80
2016-06-26T08:03:42.195Z,80
2016-06-26T08:04:40.906Z,80
2016-06-26T08:05:40.904Z,80
2016-06-26T08:06:40.919Z,80
2016-06-26T08:07:40.228Z,80
2016-06-26T08:08:40.219Z,80
2016-06-26T08:09:41.480Z,80
2016-06-26T08:10:40.216Z,85
2016-06-26T08:11:41.448Z,85
2016-06-26T08:12:42.059Z,85
2016-06-26T08:13:41.423Z,85
2016-06-26T08:14:42.035Z,85
2016-06-26T08:15:40.776Z,85
2016-06-26T08:16:41.373Z,85
2016-06-26T08:17:41.349Z,85
2016-06-26T08:18:40.701Z,85
2016-06-26T08:19:41.325Z,85
2016-06-26T08:20:41.342Z,85
2016-06-26T08:21:41.926Z,85
2016-06-26T08:22:41.931Z,90
2016-06-26T08:23:41.925Z,90
2016-06-26T08:24:40.655Z,90
2016-06-26T08:25:41.258Z,90
2016-06-26T08:26:41.229Z,90
2016-06-26T08:27:41.906Z,90
2016-06-26T08:28:41.190Z,90
2016-06-26T08:29:41.153Z,90
2016-06-26T08:30:41.158Z,90
2016-06-26T08:31:41.802Z,90
2016-06-26T08:32:41.169Z,90
2016-06-26T08:33:39.843Z,90
2016-06-26T08:34:41.107Z,95
2016-06-26T08:35:41.741Z,95
2016-06-26T08:36:41.747Z,95
2016-06-26T08:37:40.418Z,95
2016-06-26T08:38:40.436Z,95
2016-06-26T08:39:41.104Z,95
2016-06-26T08:40:41.700Z,95
2016-06-26T08:41:41.664Z,95
2016-06-26T08:42:41.017Z,95
2016-06-26T08:43:40.346Z,95
2016-06-26T08:44:40.347Z,95
2016-06-26T08:45:40.311Z,95
2016-06-26T08:46:40.977Z,100
2016-06-26T08:47:40.943Z,100
2016-06-26T08:48:41.597Z,100
2016-06-26T08:49:40.249Z,100
2016-06-26T08:50:41.547Z,100
2016-06-26T08:51:41.513Z,100
2016-06-26T08:52:40.881Z,100
2016-06-26T08:53:40.863Z,100
2016-06-26T08:54:40.840Z,100
2016-06-26T08:55:40.832Z,100
2016-06-26T08:56:40.157Z,100
2016-06-26T08:57:40.182Z,100
2016-06-26T08:58:40.789Z,100
2016-06-26T08:59:39.498Z,100
2016-06-26T09:00:40.759Z,100
2016-06-26T09:01:41.421Z,100
2016-06-26T09:02:39.469Z,100
2016-06-26T09:03:40.738Z,100
2016-06-26T09:04:41.354Z,100
2016-06-26T09:05:40.688Z,100
2016-06-26T09:06:41.334Z,105
2016-06-26T09:07:40.670Z,105
2016-06-26T09:08:40.651Z,105
2016-06-26T09:09:41.282Z,105
2016-06-26T09:10:41.291Z,105
2016-06-26T09:11:41.261Z,105
2016-06-26T09:12:40.633Z,105
2016-06-26T09:13:39.938Z,105
2016-06-26T09:14:41.257Z,105
2016-06-26T09:15:39.278Z,105
2016-06-26T09:16:41.160Z,105
2016-06-26T09:17:41.174Z,110
2016-06-26T09:18:39.862Z,110
2016-06-26T09:19:40.509Z,110
2016-06-26T09:20:41.120Z,110
2016-06-26T09:21:40.480Z,110
2016-06-26T09:22:41.078Z,110
2016-06-26T09:23:41.076Z,110
2016-06-26T09:24:39.835Z,110
2016-06-26T09:25:41.085Z,110
2016-06-26T09:26:40.441Z,110
2016-06-26T09:27:40.447Z,115
2016-06-26T09:28:41.039Z,115
2016-06-26T09:29:40.371Z,115
2016-06-26T09:30:41.044Z,115
2016-06-26T09:31:40.963Z,115
2016-06-26T09:32:39.722Z,115
2016-06-26T09:33:40.952Z,115
2016-06-26T09:34:39.696Z,120
2016-06-26T09:35:40.932Z,120
2016-06-26T09:36:40.949Z,120
2016-06-26T09:37:39.625Z,120
2016-06-26T09:38:40.251Z,120
2016-06-26T09:39:40.893Z,120
2016-06-26T09:40:40.854Z,120
2016-06-26T09:41:40.892Z,125
2016-06-26T09:42:40.207Z,125
2016-06-26T09:43:40.242Z,125
2016-06-26T09:44:40.820Z,125
2016-06-26T09:45:40.815Z,125
2016-06-26T09:46:40.819Z,125
2016-06-26T09:47:40.139Z,125
2016-06-26T09:48:38.831Z,130
2016-06-26T09:49:40.134Z,130
2016-06-26T09:50:40.103Z,130
2016-06-26T09:51:40.081Z,130
2016-06-26T09:52:40.064Z,130
2016-06-26T09:53:40.702Z,130
2016-06-26T09:54:40.064Z,130
2016-06-26T09:55:40.741Z,135
2016-06-26T09:56:40.650Z,135
2016-06-26T09:57:40.655Z,135
2016-06-26T09:58:40.644Z,135
2016-06-26T09:59:39.983Z,140
2016-06-26T10:00:40.618Z,140
2016-06-26T10:01:38.668Z,140
2016-06-26T10:02:39.311Z,140
2016-06-26T10:03:40.598Z,140
2016-06-26T10:04:40.551Z,145
2016-06-26T10:05:39.919Z,145
2016-06-26T10:06:39.247Z,145
2016-06-26T10:07:40.533Z,145
2016-06-26T10:08:39.873Z,145
2016-06-26T10:09:40.523Z,150
2016-06-26T10:10:39.854Z,150
2016-06-26T10:11:40.490Z,150
2016-06-26T10:12:39.815Z,150
2016-06-26T10:13:39.830Z,150
2016-06-26T10:14:39.804Z,150
2016-06-26T10:15:39.781Z,150
2016-06-26T10:16:39.826Z,150
2016-06-26T10:17:40.383Z,155
2016-06-26T10:18:40.411Z,155
2016-06-26T10:19:39.100Z,155
2016-06-26T10:20:39.742Z,160
2016-06-26T10:21:39.719Z,160
2016-06-26T10:22:39.707Z,160
2016-06-26T10:23:39.702Z,160
2016-06-26T10:24:39.674Z,165
2016-06-26T10:25:39.026Z,165
2016-06-26T10:26:39.642Z,165
2016-06-26T10:27:39.675Z,170
2016-06-26T10:28:39.646Z,170
2016-06-26T10:29:40.252Z,170
2016-06-26T10:30:39.626Z,175
2016-06-26T10:31:40.397Z,175
2016-06-26T10:32:38.949Z,180
2016-06-26T10:33:39.594Z,180
2016-06-26T10:34:39.569Z,185
2016-06-26T10:35:40.229Z,185
2016-06-26T10:36:39.614Z,185
2016-06-26T10:37:39.530Z,190
2016-06-26T10:38:38.233Z,190
2016-06-26T10:39:39.502Z,190
2016-06-26T10:40:40.115Z,190
2016-06-26T10:41:40.116Z,190
2016-06-26T10:42:39.474Z,190
2016-06-26T10:43:39.443Z,190
2016-06-26T10:44:38.829Z,195
2016-06-26T10:45:38.808Z,195
2016-06-26T10:46:38.798Z,195
2016-06-26T10:47:40.061Z,200
2016-06-26T10:48:40.035Z,200
2016-06-26T10:49:40.017Z,200
2016-06-26T10:50:39.999Z,200
2016-06-26T10:51:39.367Z,200
2016-06-26T10:52:40.006Z,200
2016-06-26T10:53:39.996Z,195
2016-06-26T10:54:39.954Z,200
2016-06-26T10:55:39.371Z,190
2016-06-26T10:56:39.956Z,195
2016-06-26T10:57:39.281Z,195
2016-06-26T10:58:39.936Z,200
2016-06-26T10:59:39.287Z,195
2016-06-26T11:00:38.009Z,195
2016-06-26T11:01:39.263Z,200
2016-06-26T11:02:39.244Z,200
2016-06-26T11:03:39.237Z,200
2016-06-26T11:04:39.902Z,170
2016-06-26T11:05:38.597Z,205
2016-06-26T11:06:39.831Z,205
2016-06-26T11:07:39.827Z,210
2016-06-26T11:08:39.834Z,220
2016-06-26T11:09:39.170Z,190
2016-06-26T11:10:39.151Z,225
2016-06-26T11:11:39.295Z,230
2016-06-26T11:12:39.138Z,230
2016-06-26T11:13:39.154Z,230
2016-06-26T11:14:39.236Z,230
2016-06-26T11:15:39.094Z,225
2016-06-26T11:16:39.731Z,225
2016-06-26T11:17:39.726Z,220
2016-06-26T11:18:38.420Z,220
2016-06-26T11:19:39.057Z,220
2016-06-26T11:20:39.061Z,220
2016-06-26T11:21:39.030Z,220
2016-06-26T11:22:38.388Z,220
2016-06-26T11:23:38.403Z,220
2016-06-26T11:24:38.381Z,220
2016-06-26T11:25:39.623Z,220
2016-06-26T11:26:38.386Z,220
2016-06-26T11:27:37.706Z,220
2016-06-26T11:28:39.633Z,220
2016-06-26T11:29:38.322Z,220
2016-06-26T11:30:38.956Z,220
2016-06-26T11:31:39.596Z,220
2016-06-26T11:32:38.931Z,225
2016-06-26T11:33:38.954Z,230
2016-06-26T11:34:39.551Z,440
2016-06-26T11:35:38.908Z,870
2016-06-26T11:36:39.536Z,855
2016-06-26T11:37:39.539Z,685
2016-06-26T11:38:38.870Z,495
2016-06-26T11:39:38.879Z,305
2016-06-26T11:40:39.537Z,545
2016-06-26T11:41:38.883Z,1245
2016-06-26T11:42:39.521Z,2050
2016-06-26T11:43:39.505Z,2205
2016-06-26T11:44:39.475Z,2215
2016-06-26T11:45:38.203Z,2140
2016-06-26T11:46:38.826Z,2065
2016-06-26T11:47:39.502Z,2155
2016-06-26T11:48:38.818Z,2180
2016-06-26T11:49:38.186Z,2260
2016-06-26T11:50:38.194Z,2210
2016-06-26T11:51:39.464Z,2020
2016-06-26T11:52:38.186Z,1995
2016-06-26T11:53:38.840Z,2165
2016-06-26T11:54:38.837Z,2130
2016-06-26T11:55:38.823Z,2170
2016-06-26T11:56:38.783Z,2145
2016-06-26T11:57:39.488Z,2095
2016-06-26T11:58:39.407Z,2180
2016-06-26T11:59:38.149Z,2240
2016-06-26T12:00:38.163Z,2200
2016-06-26T12:01:39.450Z,2205
2016-06-26T12:02:38.858Z,2250
2016-06-26T12:03:39.428Z,2265
2016-06-26T12:04:39.431Z,2235
2016-06-26T12:05:39.454Z,2120
2016-06-26T12:06:39.437Z,2150
2016-06-26T12:07:39.447Z,2235
2016-06-26T12:08:38.795Z,2175
2016-06-26T12:09:38.782Z,2110
2016-06-26T12:10:38.805Z,2080
2016-06-26T12:11:39.446Z,1965
2016-06-26T12:12:39.430Z,1910
2016-06-26T12:13:39.419Z,2020
2016-06-26T12:14:39.465Z,2225
2016-06-26T12:15:38.792Z,2200
2016-06-26T12:16:39.431Z,2055
2016-06-26T12:17:38.163Z,2025
2016-06-26T12:18:38.762Z,2070
2016-06-26T12:19:38.751Z,1690
2016-06-26T12:20:38.764Z,1130
2016-06-26T12:21:38.776Z,720
2016-06-26T12:22:39.431Z,650
2016-06-26T12:23:38.768Z,685
2016-06-26T12:24:39.432Z,670
2016-06-26T12:25:39.406Z,605
2016-06-26T12:26:38.791Z,555
2016-06-26T12:27:39.462Z,535
2016-06-26T12:28:38.792Z,535
2016-06-26T12:29:38.792Z,520
2016-06-26T12:30:38.787Z,520
2016-06-26T12:31:38.770Z,520
2016-06-26T12:32:37.509Z,520
2016-06-26T12:33:38.819Z,505
2016-06-26T12:34:39.439Z,495
2016-06-26T12:35:38.788Z,500
2016-06-26T12:36:38.795Z,500
2016-06-26T12:37:38.144Z,500
2016-06-26T12:38:38.779Z,495
2016-06-26T12:39:39.417Z,495
2016-06-26T12:40:38.795Z,495
2016-06-26T12:41:38.849Z,495
2016-06-26T12:42:39.467Z,500
2016-06-26T12:43:39.466Z,495
2016-06-26T12:44:38.842Z,500
2016-06-26T12:45:38.800Z,500
2016-06-26T12:46:39.487Z,505
2016-06-26T12:47:37.546Z,500
2016-06-26T12:48:38.872Z,505
2016-06-26T12:49:39.453Z,505
2016-06-26T12:50:39.483Z,515
2016-06-26T12:51:39.498Z,515
2016-06-26T12:52:38.818Z,525
2016-06-26T12:53:38.821Z,525
2016-06-26T12:54:39.485Z,525
2016-06-26T12:55:38.837Z,530
2016-06-26T12:56:38.275Z,535
2016-06-26T12:57:38.855Z,545
2016-06-26T12:58:38.830Z,550
2016-06-26T12:59:39.463Z,560
2016-06-26T13:00:39.497Z,565
2016-06-26T13:01:39.483Z,565
2016-06-26T13:02:38.221Z,570
2016-06-26T13:03:38.846Z,580
2016-06-26T13:04:39.506Z,595
2016-06-26T13:05:39.494Z,605
2016-06-26T13:06:37.594Z,625
2016-06-26T13:07:39.510Z,665
2016-06-26T13:08:38.856Z,780
2016-06-26T13:09:39.491Z,1165
2016-06-26T13:10:38.841Z,1720
2016-06-26T13:11:39.508Z,2200
2016-06-26T13:12:39.518Z,2370
2016-06-26T13:13:39.531Z,2145
2016-06-26T13:14:38.231Z,2115
2016-06-26T13:15:38.860Z,2180
2016-06-26T13:16:38.883Z,2125
2016-06-26T13:17:39.507Z,2325
2016-06-26T13:18:38.236Z,2200
2016-06-26T13:19:39.547Z,2075
2016-06-26T13:20:38.238Z,2280
2016-06-26T13:21:39.533Z,2295
2016-06-26T13:22:39.524Z,2315
2016-06-26T13:23:39.191Z,2315
2016-06-26T13:24:38.867Z,2320
2016-06-26T13:25:38.904Z,2285
2016-06-26T13:26:38.252Z,2190
2016-06-26T13:27:37.615Z,2235
2016-06-26T13:28:38.250Z,2435
2016-06-26T13:29:38.915Z,2435
2016-06-26T13:30:38.914Z,2270
2016-06-26T13:31:38.945Z,2330
2016-06-26T13:32:39.532Z,2245
2016-06-26T13:33:38.906Z,2095
2016-06-26T13:34:38.908Z,2225
2016-06-26T13:35:39.565Z,2345
2016-06-26T13:36:39.550Z,2350
2016-06-26T13:37:39.567Z,2325
2016-06-26T13:38:38.938Z,2240
2016-06-26T13:39:39.589Z,2305
2016-06-26T13:40:39.661Z,2360
2016-06-26T13:41:38.961Z,2375
2016-06-26T13:42:37.658Z,2340
2016-06-26T13:43:38.935Z,2310
2016-06-26T13:44:39.578Z,2395
2016-06-26T13:45:39.584Z,2285
2016-06-26T13:46:38.302Z,2325
2016-06-26T13:47:38.930Z,2245
2016-06-26T13:48:38.967Z,2110
2016-06-26T13:49:38.962Z,2295
2016-06-26T13:50:39.602Z,2290
2016-06-26T13:51:39.587Z,2265
2016-06-26T13:52:39.574Z,2365
2016-06-26T13:53:39.615Z,2345
2016-06-26T13:54:38.957Z,2330
2016-06-26T13:55:38.987Z,2425
2016-06-26T13:56:39.600Z,2390
2016-06-26T13:57:38.958Z,2390
2016-06-26T13:58:39.590Z,2370
2016-06-26T13:59:39.614Z,2250
2016-06-26T14:00:38.347Z,2240
2016-06-26T14:01:39.616Z,2265
2016-06-26T14:02:38.966Z,2065
2016-06-26T14:03:39.594Z,2140
2016-06-26T14:04:38.369Z,2245
2016-06-26T14:05:37.726Z,2170
2016-06-26T14:06:38.354Z,2220
2016-06-26T14:07:39.621Z,2125
2016-06-26T14:08:39.635Z,2165
2016-06-26T14:09:38.990Z,2205
2016-06-26T14:10:38.987Z,2120
2016-06-26T14:11:38.995Z,2150